Norfolk International Airport
KORF : now visible

Airfield :











YOU CAN JOIN US ON...

 
LOGIN :

Register | Disclaimer

   EN    FR    IT 

 









Legend :    VFR   Marginal VFR   IFR   Intensive IFR   Very Intensive IFR
Visi :
Ceiling :
>= 8 km
>= 3000ft
5 to 8 km
1000 to 3000 ft
1500m to 5 km
500 to 1000 ft
800 to 1500m
200 to 500 ft
< 800m
< 200 ft
Symbols :   Thunderstorms  Fog  Heavy snow  Heavy precipitations  Wind > 20 kt






- Airport Elevation : 26 ft
- IATA code : ORF


KORF - Norfolk International

CURRENT METAR :
  • 250651Z 03008KT 10SM BKN005 OVC010 16/14 A3015 RMK AO2 RAB23E33 SLP208 P0000 T01610144

EXPIRED METARs :
  • 250623Z 03008KT 5SM -RA BR OVC005 16/14 A3016 RMK AO2 RAB23 P0000 T01610144
  • 250607Z 03008KT 3SM BR OVC003 16/15 A3016 RMK AO2 T01610150
  • 250551Z 04007KT 2 1/2SM BR OVC003 16/15 A3016 RMK AO2 SLP211 T01610150 10161 20144 55003
  • 250547Z 03007KT 2 1/2SM BR OVC003 16/14 A3016 RMK AO2
  • 250528Z 02008KT 4SM BR OVC003 16/14 A3016 RMK AO2 T01560144
  • 250518Z 02007KT 2 1/2SM BR OVC003 16/14 A3016 RMK AO2 T01560144
  • 250508Z 03008KT 1 3/4SM BR OVC003 16/14 A3016 RMK AO2 T01560144
  • 250451Z 03010KT 2 1/2SM BR OVC004 16/14 A3017 RMK AO2 SLP214 T01560144 402060144

TAF KORF
Valid from the 25 at 06:00 until the 26 at 06:00 UTC


250530Z 2506/2606 03008KT 3SM BR OVC003
FM251300 03007KT 5SM BR OVC004
FM251500 03007KT P6SM OVC007
FM251900 04007KT P6SM BKN015
FM260100 07005KT P6SM OVC007
FM260400 07004KT 5SM BR OVC004
KZDC FIR / North America



MET'MAP, your aeronautical weather chart ! - Copyright ORBIFLY December 2007 - Disclaimer

ORBIFLY MET'MAP TEAM :

Programming & Development : Alexandra Zaïnal
Concept & original design : Baudouin d'Aumeries
Assistance for programming : Marc-Olivier Méhu
Technical & hardware support : Manuel Goepfert

Contact : metmap@orbifly.com




SOURCES & CREDITS :

   NOAA       Earth
Advisory